createdAt,value
2018-01-04T00:00:34.168Z,995.82
2018-01-04T00:01:43.411Z,995.84
2018-01-04T00:02:52.343Z,995.82
2018-01-04T00:04:01.296Z,995.72
2018-01-04T00:05:10.261Z,995.83
2018-01-04T00:06:19.459Z,995.83
2018-01-04T00:07:28.143Z,995.84
2018-01-04T00:08:37.596Z,995.8
2018-01-04T00:09:47.308Z,995.78
2018-01-04T00:10:56.783Z,995.75
2018-01-04T00:12:05.980Z,995.79
2018-01-04T00:13:14.920Z,995.82
2018-01-04T00:14:23.859Z,995.79
2018-01-04T00:15:33.579Z,995.8
2018-01-04T00:16:42.258Z,995.8
2018-01-04T00:17:51.454Z,995.75
2018-01-04T00:19:00.907Z,995.82
2018-01-04T00:20:10.106Z,995.65
2018-01-04T00:21:19.567Z,995.74
2018-01-04T00:22:28.527Z,995.85
2018-01-04T00:23:37.223Z,995.88
2018-01-04T00:24:46.177Z,995.88
2018-01-04T00:25:55.376Z,995.85
2018-01-04T00:27:04.864Z,995.82
2018-01-04T00:28:13.798Z,995.81
2018-01-04T00:29:22.488Z,995.82
2018-01-04T00:30:31.695Z,995.86
2018-01-04T00:31:40.892Z,995.79
2018-01-04T00:32:50.083Z,995.77
2018-01-04T00:33:59.020Z,995.87
2018-01-04T00:35:08.230Z,995.79
2018-01-04T00:36:17.692Z,995.82
2018-01-04T00:37:26.633Z,995.85
2018-01-04T00:38:35.564Z,995.83
2018-01-04T00:39:44.766Z,995.69
2018-01-04T00:40:53.963Z,995.7
2018-01-04T00:42:03.691Z,995.81
2018-01-04T00:43:12.883Z,995.8
2018-01-04T00:44:22.357Z,995.69
2018-01-04T00:45:31.292Z,995.77
2018-01-04T00:46:40.492Z,995.69
2018-01-04T00:47:49.174Z,995.63
2018-01-04T00:48:57.852Z,995.65
2018-01-04T00:50:07.055Z,995.71
2018-01-04T00:51:16.250Z,995.71
2018-01-04T00:52:25.446Z,995.78
2018-01-04T00:53:34.652Z,995.67
2018-01-04T00:54:43.602Z,995.74
2018-01-04T00:55:52.547Z,995.59
2018-01-04T00:57:02.008Z,995.63
2018-01-04T00:58:11.202Z,995.59
2018-01-04T00:59:20.158Z,995.56
2018-01-04T01:00:29.076Z,995.5
2018-01-04T01:01:38.285Z,995.6
2018-01-04T01:02:46.963Z,995.42
2018-01-04T01:03:55.902Z,995.44
2018-01-04T01:05:05.099Z,995.48
2018-01-04T01:06:13.768Z,995.47
2018-01-04T01:07:22.454Z,995.48
2018-01-04T01:08:31.655Z,995.45
2018-01-04T01:09:40.864Z,995.42
2018-01-04T01:10:49.792Z,995.45
2018-01-04T01:14:31.340Z,995.56
2018-01-04T01:18:12.884Z,995.55
2018-01-04T01:19:21.831Z,995.56
2018-01-04T01:20:31.038Z,995.59
2018-01-04T01:28:00.857Z,995.7
2018-01-04T01:29:10.196Z,995.71
2018-01-04T01:30:19.401Z,995.68
2018-01-04T01:31:28.369Z,995.79
2018-01-04T01:32:37.035Z,995.71
2018-01-04T01:33:45.976Z,995.66
2018-01-04T01:34:54.913Z,995.71
2018-01-04T01:36:03.587Z,995.64
2018-01-04T01:37:12.801Z,995.65
2018-01-04T01:38:22.575Z,995.64
2018-01-04T01:39:31.507Z,995.67
2018-01-04T01:40:40.698Z,995.71
2018-01-04T01:41:49.637Z,995.7
2018-01-04T01:42:58.580Z,995.76
2018-01-04T01:44:07.780Z,995.64
2018-01-04T01:45:16.983Z,995.73
2018-01-04T01:46:26.444Z,995.74
2018-01-04T01:47:35.911Z,995.8
2018-01-04T01:48:44.846Z,995.75
2018-01-04T01:49:53.793Z,995.79
2018-01-04T01:51:02.731Z,995.76
2018-01-04T01:52:12.183Z,995.72
2018-01-04T01:53:21.398Z,995.77
2018-01-04T01:54:30.042Z,995.79
2018-01-04T01:55:38.718Z,995.81
2018-01-04T01:56:48.190Z,995.8
2018-01-04T01:57:57.376Z,995.82
2018-01-04T01:59:06.575Z,995.81
2018-01-04T02:00:15.539Z,995.85
2018-01-04T02:01:24.477Z,995.83
2018-01-04T02:02:33.414Z,995.82
2018-01-04T02:03:42.624Z,995.92
2018-01-04T02:04:51.558Z,995.85
2018-01-04T02:06:00.492Z,995.89
2018-01-04T02:07:09.428Z,995.84
2018-01-04T02:08:18.096Z,995.8
2018-01-04T02:09:27.039Z,995.86
2018-01-04T02:10:36.232Z,995.78
2018-01-04T02:11:44.902Z,995.79
2018-01-04T02:12:54.103Z,995.81
2018-01-04T02:14:03.312Z,995.84
2018-01-04T02:15:12.777Z,995.86
2018-01-04T02:16:22.231Z,995.86
2018-01-04T02:17:31.168Z,995.79
2018-01-04T02:18:40.370Z,995.8
2018-01-04T02:19:50.079Z,995.81
2018-01-04T02:20:58.767Z,995.8
2018-01-04T02:22:07.979Z,995.83
2018-01-04T02:23:17.186Z,995.84
2018-01-04T02:24:25.925Z,995.8
2018-01-04T02:25:34.608Z,995.84
2018-01-04T02:26:43.828Z,995.73
2018-01-04T02:27:52.782Z,995.7
2018-01-04T02:29:01.983Z,995.8
2018-01-04T02:30:11.184Z,995.83
2018-01-04T02:31:20.650Z,995.81
2018-01-04T02:32:30.122Z,995.83
2018-01-04T02:33:39.065Z,995.85
2018-01-04T02:34:48.262Z,995.85
2018-01-04T02:35:57.710Z,995.88
2018-01-04T02:37:06.644Z,995.75
2018-01-04T02:38:15.325Z,995.78
2018-01-04T02:39:24.333Z,995.76
2018-01-04T02:40:33.809Z,995.75
2018-01-04T02:41:42.489Z,995.82
2018-01-04T02:42:51.437Z,995.71
2018-01-04T02:44:00.378Z,995.76
2018-01-04T02:45:10.102Z,995.74
2018-01-04T02:46:19.058Z,995.76
2018-01-04T02:47:28.520Z,995.78
2018-01-04T02:48:37.990Z,995.72
2018-01-04T02:49:47.201Z,995.75
2018-01-04T02:50:56.657Z,995.65
2018-01-04T02:52:05.337Z,995.67
2018-01-04T02:53:14.531Z,995.63
2018-01-04T02:54:23.473Z,995.68
2018-01-04T02:55:32.159Z,995.7
2018-01-04T02:56:40.847Z,995.64
2018-01-04T02:57:50.052Z,995.68
2018-01-04T02:58:59.508Z,995.66
2018-01-04T03:00:08.972Z,995.65
2018-01-04T03:01:17.919Z,995.63
2018-01-04T03:02:26.855Z,995.58
2018-01-04T03:03:35.786Z,995.63
2018-01-04T03:04:44.724Z,995.62
2018-01-04T03:05:53.656Z,995.68
2018-01-04T03:07:02.591Z,995.57
2018-01-04T03:08:11.789Z,995.55
2018-01-04T03:09:20.721Z,995.63
2018-01-04T03:10:29.922Z,995.65
2018-01-04T03:11:39.411Z,995.66
2018-01-04T03:12:48.613Z,995.69
2018-01-04T03:13:57.552Z,995.64
2018-01-04T03:15:06.492Z,995.62
2018-01-04T03:16:15.944Z,995.62
2018-01-04T03:17:24.892Z,995.53
2018-01-04T03:18:33.834Z,995.54
2018-01-04T03:19:43.031Z,995.63
2018-01-04T03:20:52.502Z,995.62
2018-01-04T03:22:01.710Z,995.49
2018-01-04T03:23:10.918Z,995.63
2018-01-04T03:24:20.111Z,995.6
2018-01-04T03:25:29.326Z,995.62
2018-01-04T03:26:38.527Z,995.62
2018-01-04T03:27:47.206Z,995.57
2018-01-04T03:28:56.149Z,995.54
2018-01-04T03:30:05.102Z,995.58
2018-01-04T03:31:14.057Z,995.69
2018-01-04T03:32:23.271Z,995.64
2018-01-04T03:33:32.987Z,995.63
2018-01-04T03:34:42.197Z,995.64
2018-01-04T03:35:51.147Z,995.65
2018-01-04T03:37:00.619Z,995.66
2018-01-04T03:38:09.557Z,995.66
2018-01-04T03:39:18.509Z,995.6
2018-01-04T03:40:27.449Z,995.71
2018-01-04T03:41:36.906Z,995.67
2018-01-04T03:42:45.841Z,995.78
2018-01-04T03:43:55.306Z,995.8
2018-01-04T03:45:04.756Z,995.77
2018-01-04T03:46:13.691Z,995.78
2018-01-04T03:47:22.641Z,995.72
2018-01-04T03:48:31.317Z,995.66
2018-01-04T03:50:05.930Z,995.7
2018-01-04T03:51:15.139Z,995.7
2018-01-04T03:52:24.860Z,995.65
2018-01-04T03:53:34.059Z,995.66
2018-01-04T03:54:43.008Z,995.65
2018-01-04T03:55:51.952Z,995.59
2018-01-04T03:57:00.895Z,995.53
2018-01-04T03:58:09.836Z,995.56
2018-01-04T03:59:19.096Z,995.49
2018-01-04T04:00:28.296Z,995.61
2018-01-04T04:01:37.512Z,995.56
2018-01-04T04:02:46.451Z,995.49
2018-01-04T04:03:55.642Z,995.55
2018-01-04T04:05:05.374Z,995.43
2018-01-04T04:06:14.573Z,995.42
2018-01-04T04:07:23.784Z,995.46
2018-01-04T04:08:32.466Z,995.5
2018-01-04T04:09:41.672Z,995.53
2018-01-04T04:10:50.627Z,995.61
2018-01-04T04:11:59.571Z,995.65
2018-01-04T04:13:09.053Z,995.66
2018-01-04T04:14:17.742Z,995.75
2018-01-04T04:15:26.676Z,995.72
2018-01-04T04:16:36.149Z,995.71
2018-01-04T04:17:45.624Z,995.63
2018-01-04T04:18:54.568Z,995.75
2018-01-04T04:20:03.504Z,995.7
2018-01-04T04:21:12.444Z,995.76
2018-01-04T04:22:21.383Z,995.76
2018-01-04T04:23:30.066Z,995.76
2018-01-04T04:24:39.276Z,995.76
2018-01-04T04:25:47.958Z,995.71
2018-01-04T04:26:57.173Z,995.7
2018-01-04T04:28:06.635Z,995.64
2018-01-04T04:29:15.591Z,995.67
2018-01-04T04:30:24.535Z,995.66
2018-01-04T04:31:33.476Z,995.67
2018-01-04T04:32:42.419Z,995.65
2018-01-04T04:33:51.882Z,995.64
2018-01-04T04:35:01.086Z,995.61
2018-01-04T04:36:10.033Z,995.57
2018-01-04T04:37:18.716Z,995.63
2018-01-04T04:38:27.973Z,995.6
2018-01-04T04:39:36.660Z,995.61
2018-01-04T04:40:45.603Z,995.66
2018-01-04T04:41:54.923Z,995.72
2018-01-04T04:43:03.857Z,995.69
2018-01-04T04:44:12.799Z,995.63
2018-01-04T04:45:22.005Z,995.62
2018-01-04T04:46:30.951Z,995.6
2018-01-04T04:47:39.894Z,995.53
2018-01-04T04:48:49.097Z,995.51
2018-01-04T04:49:58.038Z,995.56
2018-01-04T04:51:07.512Z,995.58
2018-01-04T04:52:16.188Z,995.61
2018-01-04T04:53:25.146Z,995.61
2018-01-04T04:54:34.348Z,995.56
2018-01-04T04:55:43.294Z,995.55
2018-01-04T04:56:52.772Z,995.59
2018-01-04T04:58:01.983Z,995.54
2018-01-04T04:59:11.186Z,995.57
2018-01-04T05:00:20.120Z,995.59
2018-01-04T05:01:29.331Z,995.53
2018-01-04T05:02:38.273Z,995.51
2018-01-04T05:03:47.743Z,995.45
2018-01-04T05:04:56.699Z,995.38
2018-01-04T05:06:05.645Z,995.41
2018-01-04T05:07:14.318Z,995.33
2018-01-04T05:08:23.517Z,995.45
2018-01-04T05:09:32.470Z,995.37
2018-01-04T05:10:41.415Z,995.36
2018-01-04T05:11:50.359Z,995.32
2018-01-04T05:12:59.041Z,995.31
2018-01-04T05:14:07.984Z,995.33
2018-01-04T05:15:16.930Z,995.34
2018-01-04T05:16:26.395Z,995.41
2018-01-04T05:17:35.607Z,995.45
2018-01-04T05:18:44.292Z,995.49
2018-01-04T05:19:53.496Z,995.48
2018-01-04T05:21:02.445Z,995.51
2018-01-04T05:22:11.922Z,995.52
2018-01-04T05:23:21.131Z,995.54
2018-01-04T05:24:30.078Z,995.58
2018-01-04T05:25:39.314Z,995.51
2018-01-04T05:26:48.002Z,995.44
2018-01-04T05:27:56.945Z,995.47
2018-01-04T05:29:06.145Z,995.4
2018-01-04T05:30:15.088Z,995.41
2018-01-04T05:31:24.286Z,995.39
2018-01-04T05:32:33.230Z,995.37
2018-01-04T05:33:42.239Z,995.39
2018-01-04T05:34:51.185Z,995.44
2018-01-04T05:36:00.130Z,995.4
2018-01-04T05:37:09.068Z,995.29
2018-01-04T05:38:17.752Z,995.24
2018-01-04T05:39:27.035Z,995.11
2018-01-04T05:40:36.251Z,995
2018-01-04T05:41:45.198Z,995
2018-01-04T05:42:54.431Z,994.99
2018-01-04T05:44:03.377Z,995.03
2018-01-04T05:45:12.324Z,995.05
2018-01-04T05:46:21.279Z,995
2018-01-04T05:47:30.471Z,994.94
2018-01-04T05:48:39.682Z,994.96
2018-01-04T05:49:48.640Z,995
2018-01-04T05:50:58.102Z,995.06
2018-01-04T05:52:07.304Z,995.1
2018-01-04T05:53:16.509Z,995.22
2018-01-04T05:54:25.190Z,995.22
2018-01-04T05:55:34.398Z,995.25
2018-01-04T05:56:43.610Z,995.23
2018-01-04T05:57:52.563Z,995.26
2018-01-04T05:59:01.761Z,995.25
2018-01-04T06:00:10.709Z,995.23
2018-01-04T06:01:19.914Z,995.21
2018-01-04T06:02:28.600Z,995.26
2018-01-04T06:03:37.563Z,995.28
2018-01-04T06:04:46.825Z,995.28
2018-01-04T06:05:55.765Z,995.23
2018-01-04T06:07:05.007Z,995.22
2018-01-04T06:08:13.915Z,995.25
2018-01-04T06:09:23.373Z,995.27
2018-01-04T06:10:32.322Z,995.31
2018-01-04T06:11:41.778Z,995.21
2018-01-04T06:12:50.717Z,995.17
2018-01-04T06:14:00.443Z,995.16
2018-01-04T06:15:09.456Z,995.07
2018-01-04T06:16:18.667Z,994.98
2018-01-04T06:17:27.357Z,994.95
2018-01-04T06:18:37.011Z,994.99
2018-01-04T06:19:46.487Z,995
2018-01-04T06:20:55.432Z,994.96
2018-01-04T06:22:04.398Z,994.93
2018-01-04T06:23:13.873Z,994.94
2018-01-04T06:24:22.587Z,994.95
2018-01-04T06:25:31.838Z,994.93
2018-01-04T06:26:41.040Z,994.88
2018-01-04T06:27:50.243Z,994.88
2018-01-04T06:28:59.179Z,994.83
2018-01-04T06:30:08.116Z,994.81
2018-01-04T06:31:17.065Z,994.74
2018-01-04T06:32:26.420Z,994.76
2018-01-04T06:33:35.621Z,994.78
2018-01-04T06:34:44.306Z,994.73
2018-01-04T06:35:53.249Z,994.73
2018-01-04T06:37:02.461Z,994.73
2018-01-04T06:38:11.679Z,994.74
2018-01-04T06:39:21.145Z,994.75
2018-01-04T06:40:30.605Z,994.76
2018-01-04T06:41:39.811Z,994.73
2018-01-04T06:42:48.757Z,994.73
2018-01-04T06:43:57.702Z,994.74
2018-01-04T06:45:07.453Z,994.71
2018-01-04T06:46:16.924Z,994.8
2018-01-04T06:47:26.137Z,994.79
2018-01-04T06:48:35.133Z,994.73
2018-01-04T06:49:44.080Z,994.69
2018-01-04T06:50:53.290Z,994.65
2018-01-04T06:52:02.242Z,994.65
2018-01-04T06:53:11.201Z,994.65
2018-01-04T06:54:20.398Z,994.71
2018-01-04T06:55:30.133Z,994.66
2018-01-04T06:56:39.349Z,994.65
2018-01-04T06:57:48.294Z,994.67
2018-01-04T06:58:57.239Z,994.64
2018-01-04T07:00:05.915Z,994.64
2018-01-04T07:01:14.862Z,994.63
2018-01-04T07:02:24.073Z,994.61
2018-01-04T07:03:33.029Z,994.65
2018-01-04T07:04:41.714Z,994.63
2018-01-04T07:05:50.403Z,994.62
2018-01-04T07:06:59.873Z,994.57
2018-01-04T07:08:09.089Z,994.57
2018-01-04T07:09:18.305Z,994.59
2018-01-04T07:10:27.007Z,994.6
2018-01-04T07:11:35.956Z,994.61
2018-01-04T07:12:45.168Z,994.58
2018-01-04T07:13:54.371Z,994.57
2018-01-04T07:15:03.333Z,994.61
2018-01-04T07:16:12.539Z,994.59
2018-01-04T07:17:21.475Z,994.62
2018-01-04T07:18:30.161Z,994.59
2018-01-04T07:19:39.105Z,994.64
2018-01-04T07:20:48.060Z,994.7
2018-01-04T07:21:57.538Z,994.69
2018-01-04T07:23:06.752Z,994.7
2018-01-04T07:24:15.690Z,994.69
2018-01-04T07:25:24.887Z,994.68
2018-01-04T07:26:33.842Z,994.66
2018-01-04T07:27:43.314Z,994.68
2018-01-04T07:28:52.264Z,994.67
2018-01-04T07:30:01.223Z,994.7
2018-01-04T07:31:10.173Z,994.78
2018-01-04T07:32:19.650Z,994.73
2018-01-04T07:33:28.383Z,994.77
2018-01-04T07:34:37.276Z,994.72
2018-01-04T07:35:46.224Z,994.68
2018-01-04T07:36:55.695Z,994.69
2018-01-04T07:38:04.646Z,994.66
2018-01-04T07:39:13.859Z,994.66
2018-01-04T07:40:23.068Z,994.65
2018-01-04T07:41:32.312Z,994.69
2018-01-04T07:42:41.530Z,994.71
2018-01-04T07:43:50.733Z,994.7
2018-01-04T07:44:59.936Z,994.71
2018-01-04T07:46:08.612Z,994.67
2018-01-04T07:47:17.825Z,994.64
2018-01-04T07:48:26.770Z,994.65
2018-01-04T07:49:35.773Z,994.65
2018-01-04T07:50:44.717Z,994.68
2018-01-04T07:51:53.922Z,994.67
2018-01-04T07:53:02.610Z,994.72
2018-01-04T07:54:11.815Z,994.78
2018-01-04T07:55:21.097Z,994.69
2018-01-04T07:56:29.776Z,994.71
2018-01-04T07:57:39.237Z,994.68
2018-01-04T07:58:48.190Z,994.65
2018-01-04T07:59:57.414Z,994.68
2018-01-04T08:01:06.887Z,994.65
2018-01-04T08:02:15.570Z,994.73
2018-01-04T08:03:25.039Z,994.77
2018-01-04T08:04:34.278Z,994.76
2018-01-04T08:05:43.228Z,994.77
2018-01-04T08:06:52.708Z,994.77
2018-01-04T08:08:01.919Z,994.73
2018-01-04T08:09:11.651Z,994.73
2018-01-04T08:10:21.120Z,994.78
2018-01-04T08:11:30.601Z,994.76
2018-01-04T08:12:39.592Z,994.74
2018-01-04T08:13:48.815Z,994.75
2018-01-04T08:14:58.327Z,994.72
2018-01-04T08:16:08.056Z,994.73
2018-01-04T08:17:17.529Z,994.71
2018-01-04T08:18:26.466Z,994.74
2018-01-04T08:19:35.666Z,994.7
2018-01-04T08:20:44.346Z,994.68
2018-01-04T08:21:53.079Z,994.7
2018-01-04T08:23:02.295Z,994.67
2018-01-04T08:24:11.499Z,994.72
2018-01-04T08:25:20.982Z,994.62
2018-01-04T08:26:30.197Z,994.64
2018-01-04T08:27:39.420Z,994.67
2018-01-04T08:28:48.626Z,994.66
2018-01-04T08:29:57.830Z,994.63
2018-01-04T08:31:07.041Z,994.64
2018-01-04T08:32:16.249Z,994.64
2018-01-04T08:33:25.199Z,994.63
2018-01-04T08:34:34.163Z,994.6
2018-01-04T08:35:43.419Z,994.6
2018-01-04T08:36:52.683Z,994.57
2018-01-04T08:38:01.933Z,994.6
2018-01-04T08:39:11.398Z,994.63
2018-01-04T08:40:21.147Z,994.66
2018-01-04T08:41:30.651Z,994.61
2018-01-04T08:42:39.616Z,994.53
2018-01-04T08:43:49.163Z,994.51
2018-01-04T08:44:58.891Z,994.49
2018-01-04T08:46:08.645Z,994.43
2018-01-04T08:47:17.599Z,994.46
2018-01-04T08:48:26.547Z,994.39
2018-01-04T08:49:35.766Z,994.37
2018-01-04T08:50:45.244Z,994.32
2018-01-04T08:51:54.514Z,994.29
2018-01-04T08:53:04.063Z,994.3
2018-01-04T08:54:12.748Z,994.27
2018-01-04T08:55:21.690Z,994.24
2018-01-04T08:56:30.633Z,994.28
2018-01-04T08:57:40.141Z,994.24
2018-01-04T08:58:49.333Z,994.24
2018-01-04T08:59:58.569Z,994.22
2018-01-04T09:01:07.509Z,994.21
2018-01-04T09:02:16.447Z,994.18
2018-01-04T09:03:25.644Z,994.13
2018-01-04T09:04:34.606Z,994.11
2018-01-04T09:05:43.561Z,994.09
2018-01-04T09:06:52.776Z,994.03
2018-01-04T09:08:02.245Z,994.03
2018-01-04T09:09:11.460Z,994.05
2018-01-04T09:10:20.665Z,994.01
2018-01-04T09:11:29.613Z,994.06
2018-01-04T09:12:39.081Z,994.08
2018-01-04T09:13:48.022Z,994
2018-01-04T09:14:57.508Z,993.99
2018-01-04T09:16:06.729Z,993.99
2018-01-04T09:17:15.691Z,994
2018-01-04T09:18:24.647Z,994.02
2018-01-04T09:19:34.163Z,994.01
2018-01-04T09:20:42.848Z,993.96
2018-01-04T09:21:52.054Z,993.96
2018-01-04T09:23:01.268Z,993.88
2018-01-04T09:24:10.206Z,993.89
2018-01-04T09:25:19.442Z,993.83
2018-01-04T09:26:29.237Z,993.8
2018-01-04T09:27:39.127Z,993.82
2018-01-04T09:28:48.072Z,993.76
2018-01-04T09:29:57.015Z,993.82
2018-01-04T09:31:06.854Z,993.78
2018-01-04T09:32:16.073Z,993.75
2018-01-04T09:33:25.038Z,993.76
2018-01-04T09:34:34.010Z,993.76
2018-01-04T09:35:42.976Z,993.78
2018-01-04T09:36:51.945Z,993.82
2018-01-04T09:38:00.642Z,993.79
2018-01-04T09:39:09.597Z,993.8
2018-01-04T09:40:18.349Z,993.75
2018-01-04T09:41:27.288Z,993.72
2018-01-04T09:42:36.319Z,993.69
2018-01-04T09:43:45.538Z,993.73
2018-01-04T09:44:54.483Z,993.69
2018-01-04T09:46:03.703Z,993.67
2018-01-04T09:47:12.388Z,993.64
2018-01-04T09:48:21.070Z,993.6
2018-01-04T09:49:30.356Z,993.63
2018-01-04T09:50:39.577Z,993.59
2018-01-04T09:51:48.341Z,993.57
2018-01-04T09:52:58.029Z,993.55
2018-01-04T09:54:07.263Z,993.56
2018-01-04T09:55:17.025Z,993.53
2018-01-04T09:56:26.504Z,993.61
2018-01-04T09:57:35.988Z,993.57
2018-01-04T09:58:44.960Z,993.57
2018-01-04T09:59:54.184Z,993.55
2018-01-04T10:01:03.204Z,993.5
2018-01-04T10:02:12.422Z,993.45
2018-01-04T10:03:21.665Z,993.41
2018-01-04T10:04:30.660Z,993.4
2018-01-04T10:05:40.176Z,993.35
2018-01-04T10:06:49.373Z,993.3
2018-01-04T10:07:58.844Z,993.33
2018-01-04T10:09:08.334Z,993.38
2018-01-04T10:10:17.306Z,993.38
2018-01-04T10:11:26.249Z,993.34
2018-01-04T10:12:35.732Z,993.34
2018-01-04T10:13:45.463Z,993.24
2018-01-04T10:14:54.413Z,993.2
2018-01-04T10:16:03.376Z,993.16
2018-01-04T10:17:12.849Z,993.19
2018-01-04T10:18:22.047Z,993.18
2018-01-04T10:19:31.272Z,993.14
2018-01-04T10:20:40.209Z,993.17
2018-01-04T10:21:49.150Z,993.16
2018-01-04T10:22:58.420Z,993.17
2018-01-04T10:24:07.592Z,993.17
2018-01-04T10:25:16.882Z,993.17
2018-01-04T10:26:25.844Z,993.09
2018-01-04T10:27:34.527Z,993.06
2018-01-04T10:28:43.803Z,993.08
2018-01-04T10:29:52.744Z,993.03
2018-01-04T10:31:01.944Z,993.02
2018-01-04T10:32:10.887Z,993.08
2018-01-04T10:33:20.359Z,993.09
2018-01-04T10:34:29.327Z,993.03
2018-01-04T10:35:38.794Z,992.98
2018-01-04T10:36:47.736Z,992.9
2018-01-04T10:37:56.679Z,992.87
2018-01-04T10:39:06.140Z,992.84
2018-01-04T10:40:15.081Z,992.81
2018-01-04T10:41:23.768Z,992.75
2018-01-04T10:42:32.454Z,992.68
2018-01-04T10:43:41.677Z,992.65
2018-01-04T10:44:50.378Z,992.58
2018-01-04T10:45:59.592Z,992.53
2018-01-04T10:47:09.061Z,992.5
2018-01-04T10:48:18.287Z,992.52
2018-01-04T10:49:27.538Z,992.46
2018-01-04T10:50:36.228Z,992.43
2018-01-04T10:51:45.177Z,992.39
2018-01-04T10:52:54.388Z,992.39
2018-01-04T10:54:03.595Z,992.32
2018-01-04T10:55:12.538Z,992.33
2018-01-04T10:56:21.509Z,992.27
2018-01-04T10:57:30.715Z,992.21
2018-01-04T10:58:40.698Z,992.21
2018-01-04T10:59:49.899Z,992.22
2018-01-04T11:00:58.856Z,992.21
2018-01-04T11:02:07.797Z,992.14
2018-01-04T11:03:17.005Z,992.04
2018-01-04T11:04:26.478Z,992.01
2018-01-04T11:05:35.420Z,991.95
2018-01-04T11:06:44.362Z,992
2018-01-04T11:07:53.306Z,991.97
2018-01-04T11:09:02.508Z,991.95
2018-01-04T11:10:11.576Z,991.92
2018-01-04T11:11:20.538Z,991.95
2018-01-04T11:12:29.755Z,991.92
2018-01-04T11:13:38.697Z,991.99
2018-01-04T11:14:47.378Z,992.05
2018-01-04T11:15:57.101Z,991.95
2018-01-04T11:17:06.565Z,991.95
2018-01-04T11:18:16.304Z,991.91
2018-01-04T11:19:25.504Z,991.87
2018-01-04T11:20:34.715Z,991.81
2018-01-04T11:21:43.911Z,991.81
2018-01-04T11:22:53.112Z,991.79
2018-01-04T11:24:02.597Z,991.75
2018-01-04T11:25:12.058Z,991.73
2018-01-04T11:26:20.735Z,991.71
2018-01-04T11:27:30.205Z,991.68
2018-01-04T11:28:39.438Z,991.63
2018-01-04T11:29:48.374Z,991.57
2018-01-04T11:30:57.579Z,991.56
2018-01-04T11:32:06.526Z,991.54
2018-01-04T11:33:16.000Z,991.47
2018-01-04T11:34:24.684Z,991.44
2018-01-04T11:35:33.892Z,991.4
2018-01-04T11:36:42.829Z,991.36
2018-01-04T11:37:51.812Z,991.38
2018-01-04T11:39:01.053Z,991.34
2018-01-04T11:40:10.018Z,991.32
2018-01-04T11:41:18.701Z,991.28
2018-01-04T11:42:28.197Z,991.2
2018-01-04T11:43:37.666Z,991.2
2018-01-04T11:44:46.866Z,991.11
2018-01-04T11:45:56.094Z,991.12
2018-01-04T11:47:05.040Z,991.08
2018-01-04T11:48:14.250Z,991.05
2018-01-04T11:49:23.450Z,990.99
2018-01-04T11:50:32.200Z,991
2018-01-04T11:51:41.438Z,990.96
2018-01-04T11:52:50.382Z,990.91
2018-01-04T11:53:59.838Z,990.86
2018-01-04T11:55:08.781Z,990.91
2018-01-04T11:56:17.455Z,990.82
2018-01-04T11:57:26.664Z,990.78
2018-01-04T11:58:35.343Z,990.71
2018-01-04T11:59:45.089Z,990.73
2018-01-04T12:00:53.798Z,990.69
2018-01-04T12:02:03.263Z,990.71
2018-01-04T12:03:11.944Z,990.64
2018-01-04T12:04:21.156Z,990.59
2018-01-04T12:05:30.375Z,990.48
2018-01-04T12:06:39.060Z,990.49
2018-01-04T12:07:48.290Z,990.46
2018-01-04T12:08:57.496Z,990.47
2018-01-04T12:10:06.440Z,990.39
2018-01-04T12:11:15.129Z,990.38
2018-01-04T12:12:24.346Z,990.34
2018-01-04T12:13:33.302Z,990.38
2018-01-04T12:14:41.990Z,990.35
2018-01-04T12:15:50.923Z,990.34
2018-01-04T12:16:59.867Z,990.32
2018-01-04T12:18:09.072Z,990.24
2018-01-04T12:19:18.044Z,990.19
2018-01-04T12:20:27.265Z,990.08
2018-01-04T12:21:35.946Z,990.02
2018-01-04T12:22:45.155Z,990.01
2018-01-04T12:23:54.099Z,989.94
2018-01-04T12:25:03.051Z,989.91
2018-01-04T12:26:11.992Z,989.9
2018-01-04T12:27:20.944Z,989.85
2018-01-04T12:28:30.412Z,989.82
2018-01-04T12:29:39.355Z,989.81
2018-01-04T12:30:48.815Z,989.77
2018-01-04T12:31:58.017Z,989.77
2018-01-04T12:33:07.269Z,989.75
2018-01-04T12:34:17.965Z,989.74
2018-01-04T12:35:27.547Z,989.7
2018-01-04T12:36:36.758Z,989.66
2018-01-04T12:37:46.213Z,989.59
2018-01-04T12:38:55.173Z,989.58
2018-01-04T12:40:04.144Z,989.6
2018-01-04T12:41:13.693Z,989.54
2018-01-04T12:42:22.383Z,989.55
2018-01-04T12:43:31.397Z,989.52
2018-01-04T12:44:40.416Z,989.51
2018-01-04T12:45:49.349Z,989.45
2018-01-04T12:46:58.412Z,989.4
2018-01-04T12:48:07.882Z,989.4
2018-01-04T12:49:17.361Z,989.33
2018-01-04T12:50:26.832Z,989.27
2018-01-04T12:51:36.571Z,989.22
2018-01-04T12:52:45.516Z,989.2
2018-01-04T12:53:54.536Z,989.16
2018-01-04T12:55:03.221Z,989.06
2018-01-04T12:56:12.215Z,989.04
2018-01-04T12:57:22.612Z,988.99
2018-01-04T12:58:31.322Z,988.97
2018-01-04T12:59:40.549Z,988.92
2018-01-04T13:00:49.876Z,988.93
2018-01-04T13:01:59.088Z,988.9
2018-01-04T13:03:08.179Z,988.88
2018-01-04T13:04:17.716Z,988.87
2018-01-04T13:05:26.939Z,988.84
2018-01-04T13:06:36.514Z,988.76
2018-01-04T13:07:45.627Z,988.76
2018-01-04T13:08:55.928Z,988.72
2018-01-04T13:10:04.994Z,988.66
2018-01-04T13:11:13.914Z,988.67
2018-01-04T13:12:22.591Z,988.59
2018-01-04T13:13:32.078Z,988.63
2018-01-04T13:14:41.719Z,988.56
2018-01-04T13:15:50.669Z,988.58
2018-01-04T13:17:00.375Z,988.56
2018-01-04T13:18:09.376Z,988.51
2018-01-04T13:19:18.161Z,988.53
2018-01-04T13:20:27.501Z,988.51
2018-01-04T13:21:37.207Z,988.44
2018-01-04T13:22:46.157Z,988.44
2018-01-04T13:23:55.383Z,988.44
2018-01-04T13:25:04.849Z,988.44
2018-01-04T13:26:13.966Z,988.42
2018-01-04T13:27:24.081Z,988.38
2018-01-04T13:28:33.299Z,988.4
2018-01-04T13:29:42.265Z,988.32
2018-01-04T13:30:50.950Z,988.26
2018-01-04T13:32:00.321Z,988.24
2018-01-04T13:33:10.626Z,988.22
2018-01-04T13:34:19.600Z,988.15
2018-01-04T13:35:28.834Z,988.15
2018-01-04T13:36:38.051Z,987.97
2018-01-04T13:37:47.936Z,987.86
2018-01-04T13:38:57.159Z,988.09
2018-01-04T13:40:05.835Z,988.14
2018-01-04T13:41:15.047Z,988.12
2018-01-04T13:42:24.256Z,988.11
2018-01-04T13:43:33.471Z,988.01
2018-01-04T13:44:42.158Z,988.01
2018-01-04T13:45:51.367Z,988.11
2018-01-04T13:47:00.847Z,988.1
2018-01-04T13:48:09.860Z,988.03
2018-01-04T13:49:19.070Z,988.07
2018-01-04T13:50:28.015Z,988.02
2018-01-04T13:51:37.012Z,987.93
2018-01-04T13:52:46.468Z,988.03
2018-01-04T13:53:55.151Z,988
2018-01-04T13:55:04.091Z,988.05
2018-01-04T13:56:13.302Z,988.06
2018-01-04T13:57:22.250Z,988
2018-01-04T13:58:31.480Z,987.97
2018-01-04T13:59:40.697Z,987.97
2018-01-04T14:00:49.376Z,987.98
2018-01-04T14:01:58.320Z,987.92
2018-01-04T14:03:07.538Z,987.97
2018-01-04T14:04:16.477Z,987.98
2018-01-04T14:05:25.624Z,987.92
2018-01-04T14:06:34.833Z,987.94
2018-01-04T14:07:44.684Z,987.95
2018-01-04T14:08:53.916Z,987.93
2018-01-04T14:10:02.901Z,987.94
2018-01-04T14:11:12.442Z,987.89
2018-01-04T14:12:21.914Z,987.89
2018-01-04T14:13:30.866Z,987.88
2018-01-04T14:14:40.076Z,987.92
2018-01-04T14:15:48.848Z,987.87
2018-01-04T14:16:57.916Z,987.88
2018-01-04T14:18:06.597Z,987.85
2018-01-04T14:19:16.078Z,987.84
2018-01-04T14:20:25.280Z,987.84
2018-01-04T14:21:35.056Z,987.84
2018-01-04T14:22:44.832Z,987.8
2018-01-04T14:23:54.164Z,987.89
2018-01-04T14:25:03.395Z,987.9
2018-01-04T14:26:12.547Z,987.87
2018-01-04T14:27:22.018Z,987.86
2018-01-04T14:28:31.079Z,987.83
2018-01-04T14:29:40.493Z,987.84
2018-01-04T14:30:49.376Z,987.86
2018-01-04T14:31:58.931Z,987.85
2018-01-04T14:33:08.034Z,987.86
2018-01-04T14:34:16.991Z,987.85
2018-01-04T14:35:26.044Z,987.85
2018-01-04T14:36:35.222Z,987.82
2018-01-04T14:37:44.190Z,987.79